createdAt,value
2023-12-12T00:00:01.888Z,23.20
2023-12-12T00:02:29.719Z,23.02
2023-12-12T00:04:57.601Z,13.13
2023-12-12T00:07:25.513Z,18.70
2023-12-12T00:09:54.715Z,17.45
2023-12-12T00:12:22.654Z,17.15
2023-12-12T00:14:50.538Z,25.00
2023-12-12T00:17:18.372Z,13.40
2023-12-12T00:19:46.446Z,20.35
2023-12-12T00:22:14.410Z,19.00
2023-12-12T00:24:42.238Z,14.55
2023-12-12T00:27:11.396Z,15.55
2023-12-12T00:29:39.609Z,25.55
2023-12-12T00:32:07.719Z,23.40
2023-12-12T00:34:37.317Z,17.90
2023-12-12T00:37:05.511Z,18.95
2023-12-12T00:39:33.797Z,13.93
2023-12-12T00:42:01.823Z,17.20
2023-12-12T00:44:30.954Z,18.05
2023-12-12T00:46:58.883Z,13.68
2023-12-12T00:49:26.967Z,15.43
2023-12-12T00:51:54.940Z,15.73
2023-12-12T00:54:22.833Z,18.60
2023-12-12T00:56:50.635Z,20.27
2023-12-12T00:59:18.467Z,21.52
2023-12-12T01:01:47.638Z,15.07
2023-12-12T01:04:15.682Z,18.48
2023-12-12T01:06:43.624Z,17.33
2023-12-12T01:09:11.432Z,17.92
2023-12-12T01:11:39.342Z,19.75
2023-12-12T01:14:07.149Z,19.15
2023-12-12T01:16:35.015Z,14.30
2023-12-12T01:19:04.714Z,24.00
2023-12-12T01:21:33.676Z,14.13
2023-12-12T01:24:01.473Z,15.77
2023-12-12T01:26:29.297Z,16.15
2023-12-12T01:28:57.100Z,24.08
2023-12-12T01:31:24.907Z,15.95
2023-12-12T01:33:53.415Z,20.77
2023-12-12T01:36:22.657Z,18.58
2023-12-12T01:38:50.496Z,24.45
2023-12-12T01:41:19.432Z,16.75
2023-12-12T01:43:47.237Z,18.42
2023-12-12T01:46:17.045Z,20.23
2023-12-12T01:48:45.029Z,20.55
2023-12-12T01:51:12.881Z,22.00
2023-12-12T01:53:44.309Z,16.83
2023-12-12T01:56:12.429Z,24.75
2023-12-12T01:58:40.529Z,12.40
2023-12-12T02:01:08.415Z,14.35
2023-12-12T02:03:36.893Z,11.52
2023-12-12T02:06:05.880Z,20.50
2023-12-12T02:08:33.890Z,14.30
2023-12-12T02:11:03.151Z,16.55
2023-12-12T02:13:31.115Z,18.38
2023-12-12T02:15:59.088Z,15.10
2023-12-12T02:18:27.033Z,14.32
2023-12-12T02:20:55.007Z,15.95
2023-12-12T02:23:24.142Z,20.60
2023-12-12T02:25:52.290Z,19.85
2023-12-12T02:28:20.132Z,19.33
2023-12-12T02:30:48.009Z,15.80
2023-12-12T02:33:15.867Z,16.70
2023-12-12T02:35:43.839Z,19.73
2023-12-12T02:38:11.633Z,16.15
2023-12-12T02:40:40.862Z,17.70
2023-12-12T02:43:08.712Z,18.60
2023-12-12T02:45:36.646Z,17.63
2023-12-12T02:48:04.755Z,18.63
2023-12-12T02:50:32.606Z,14.60
2023-12-12T02:52:59.498Z,15.57
2023-12-12T02:55:27.375Z,20.75
2023-12-12T02:57:56.545Z,21.05
2023-12-12T03:00:24.553Z,14.05
2023-12-12T03:02:52.417Z,15.73
2023-12-12T03:05:20.427Z,20.63
2023-12-12T03:07:48.272Z,12.70
2023-12-12T03:10:16.291Z,17.60
2023-12-12T03:12:44.320Z,19.40
2023-12-12T03:15:13.787Z,14.38
2023-12-12T03:17:41.758Z,24.23
2023-12-12T03:20:10.630Z,18.50
2023-12-12T03:22:38.576Z,18.33
2023-12-12T03:25:09.242Z,20.23
2023-12-12T03:27:37.262Z,21.83
2023-12-12T03:30:05.518Z,13.75
2023-12-12T03:32:34.687Z,16.52
2023-12-12T03:35:02.587Z,11.77
2023-12-12T03:37:30.707Z,20.55
2023-12-12T03:39:58.734Z,21.17
2023-12-12T03:42:26.569Z,22.33
2023-12-12T03:44:54.360Z,17.13
2023-12-12T03:47:22.239Z,21.42
2023-12-12T03:49:51.442Z,22.15
2023-12-12T03:52:19.371Z,22.70
2023-12-12T03:54:47.254Z,20.08
2023-12-12T03:57:15.048Z,24.30
2023-12-12T03:59:42.856Z,20.88
2023-12-12T04:02:10.760Z,13.48
2023-12-12T04:04:38.736Z,17.77
2023-12-12T04:07:07.977Z,13.55
2023-12-12T04:09:36.098Z,10.10
2023-12-12T04:12:03.989Z,13.52
2023-12-12T04:14:31.808Z,20.40
2023-12-12T04:16:59.698Z,19.60
2023-12-12T04:19:27.739Z,19.05
2023-12-12T04:21:55.643Z,14.02
2023-12-12T04:24:24.888Z,16.15
2023-12-12T04:26:52.702Z,19.33
2023-12-12T04:29:20.781Z,17.80
2023-12-12T04:31:50.815Z,11.98
2023-12-12T04:34:18.729Z,17.58
2023-12-12T04:36:46.638Z,16.63
2023-12-12T04:39:16.375Z,16.70
2023-12-12T04:41:45.633Z,18.05
2023-12-12T04:44:13.719Z,18.80
2023-12-12T04:46:42.799Z,25.98
2023-12-12T04:49:11.021Z,29.08
2023-12-12T04:51:38.963Z,16.92
2023-12-12T04:54:06.859Z,20.00
2023-12-12T04:56:34.678Z,25.60
2023-12-12T04:59:03.852Z,18.60
2023-12-12T05:01:32.448Z,27.00
2023-12-12T05:04:01.166Z,26.83
2023-12-12T05:06:29.019Z,18.55
2023-12-12T05:08:56.894Z,22.05
2023-12-12T05:11:24.776Z,24.23
2023-12-12T05:13:52.639Z,24.35
2023-12-12T05:16:31.012Z,20.55
2023-12-12T05:19:00.705Z,13.65
2023-12-12T05:21:28.798Z,14.10
2023-12-12T05:23:57.275Z,26.88
2023-12-12T05:26:25.089Z,21.88
2023-12-12T05:28:53.267Z,28.75
2023-12-12T05:31:25.373Z,19.80
2023-12-12T05:33:53.667Z,23.27
2023-12-12T05:36:21.647Z,18.30
2023-12-12T05:38:51.081Z,16.50
2023-12-12T05:41:18.846Z,13.93
2023-12-12T05:43:46.660Z,17.42
2023-12-12T05:46:14.796Z,18.02
2023-12-12T05:48:44.128Z,17.55
2023-12-12T05:51:12.144Z,15.15
2023-12-12T05:53:39.945Z,20.15
2023-12-12T05:56:08.681Z,16.55
2023-12-12T05:58:36.578Z,18.50
2023-12-12T06:01:05.486Z,24.23
2023-12-12T06:03:35.802Z,17.60
2023-12-12T06:06:09.288Z,16.50
2023-12-12T06:08:37.295Z,15.60
2023-12-12T06:11:04.472Z,14.45
2023-12-12T06:13:32.474Z,12.05
2023-12-12T06:16:00.334Z,16.33
2023-12-12T06:18:29.135Z,17.42
2023-12-12T06:20:57.144Z,18.70
2023-12-12T06:23:26.280Z,14.63
2023-12-12T06:25:55.181Z,18.42
2023-12-12T06:28:23.252Z,18.42
2023-12-12T06:30:51.196Z,20.27
2023-12-12T06:33:20.122Z,19.30
2023-12-12T06:35:48.029Z,18.35
2023-12-12T06:38:15.815Z,22.05
2023-12-12T06:40:45.151Z,16.90
2023-12-12T06:43:13.178Z,20.15
2023-12-12T06:45:41.131Z,16.75
2023-12-12T06:48:08.996Z,16.52
2023-12-12T06:50:37.230Z,18.52
2023-12-12T06:53:05.004Z,16.23
2023-12-12T06:55:32.831Z,22.38
2023-12-12T06:58:04.609Z,21.83
2023-12-12T07:00:34.564Z,13.00
2023-12-12T07:03:02.622Z,19.05
2023-12-12T07:05:30.465Z,13.05
2023-12-12T07:07:58.303Z,15.13
2023-12-12T07:10:26.158Z,15.10
2023-12-12T07:12:54.065Z,12.18
2023-12-12T07:15:24.461Z,16.13
2023-12-12T07:17:52.468Z,15.57
2023-12-12T07:20:20.348Z,14.75
2023-12-12T07:22:48.160Z,13.57
2023-12-12T07:25:16.390Z,11.57
2023-12-12T07:27:44.215Z,17.00
2023-12-12T07:30:13.333Z,16.58
2023-12-12T07:32:42.766Z,12.25
2023-12-12T07:35:11.207Z,17.30
2023-12-12T07:37:39.208Z,12.57
2023-12-12T07:40:09.564Z,12.60
2023-12-12T07:42:37.471Z,15.35
2023-12-12T07:45:06.878Z,18.55
2023-12-12T07:47:40.344Z,15.27
2023-12-12T07:50:12.717Z,11.90
2023-12-12T07:52:40.966Z,23.67
2023-12-12T07:55:09.316Z,16.33
2023-12-12T07:57:37.193Z,16.63
2023-12-12T08:00:07.168Z,12.63
2023-12-12T08:02:35.374Z,12.45
2023-12-12T08:05:04.667Z,10.38
2023-12-12T08:07:34.251Z,13.73
2023-12-12T08:10:02.394Z,21.90
2023-12-12T08:12:30.225Z,17.92
2023-12-12T08:14:58.138Z,23.10
2023-12-12T08:17:26.386Z,21.65
2023-12-12T08:19:54.399Z,20.42
2023-12-12T08:22:22.514Z,14.40
2023-12-12T08:24:52.865Z,17.55
2023-12-12T08:27:20.676Z,26.55
2023-12-12T08:29:49.554Z,22.02
2023-12-12T08:32:17.657Z,20.92
2023-12-12T08:34:46.758Z,20.42
2023-12-12T08:37:13.845Z,27.20
2023-12-12T08:39:41.744Z,20.40
2023-12-12T08:42:11.488Z,17.88
2023-12-12T08:44:39.725Z,23.33
2023-12-12T08:47:07.921Z,24.77
2023-12-12T08:49:38.830Z,22.23
2023-12-12T08:52:07.983Z,21.55
2023-12-12T08:54:36.365Z,25.33
2023-12-12T08:57:04.589Z,22.00
2023-12-12T08:59:33.779Z,19.63
2023-12-12T09:02:05.043Z,19.20
2023-12-12T09:04:33.770Z,20.35
2023-12-12T09:07:01.765Z,20.95
2023-12-12T09:09:32.709Z,17.25
2023-12-12T09:12:01.851Z,25.95
2023-12-12T09:14:30.216Z,20.42
2023-12-12T09:16:59.414Z,19.60
2023-12-12T09:19:27.404Z,24.20
2023-12-12T09:21:56.947Z,18.27
2023-12-12T09:24:24.900Z,23.55
2023-12-12T09:26:52.821Z,21.50
2023-12-12T09:29:20.659Z,25.30
2023-12-12T09:31:48.524Z,24.05
2023-12-12T09:34:17.995Z,22.98
2023-12-12T09:36:45.914Z,18.60
2023-12-12T09:39:13.806Z,19.75
2023-12-12T09:41:41.643Z,20.08
2023-12-12T09:44:09.690Z,22.27
2023-12-12T09:46:37.610Z,26.02
2023-12-12T09:49:07.559Z,26.73
2023-12-12T09:51:36.925Z,23.83
2023-12-12T09:54:07.601Z,17.45
2023-12-12T09:56:36.380Z,20.60
2023-12-12T09:59:04.285Z,25.30
2023-12-12T10:01:33.043Z,24.05
2023-12-12T10:04:00.911Z,26.17
2023-12-12T10:06:31.901Z,27.10
2023-12-12T10:09:01.936Z,26.17
2023-12-12T10:11:30.052Z,24.85
2023-12-12T10:13:59.735Z,23.63
2023-12-12T10:16:27.793Z,18.55
2023-12-12T10:18:55.939Z,23.25
2023-12-12T10:21:25.459Z,26.45
2023-12-12T10:23:54.096Z,25.23
2023-12-12T10:26:27.152Z,26.30
2023-12-12T10:28:55.607Z,23.00
2023-12-12T10:31:24.092Z,22.75
2023-12-12T10:33:52.117Z,32.17
2023-12-12T10:36:20.151Z,21.40
2023-12-12T10:38:48.002Z,31.58
2023-12-12T10:41:15.493Z,29.17
2023-12-12T10:43:45.756Z,21.77
2023-12-12T10:46:14.146Z,26.70
2023-12-12T10:48:44.743Z,29.45
2023-12-12T10:51:12.950Z,29.83
2023-12-12T10:53:41.307Z,22.98
2023-12-12T10:56:09.406Z,18.30
2023-12-12T10:58:37.847Z,25.45
2023-12-12T11:01:08.035Z,26.73
2023-12-12T11:03:36.526Z,20.60
2023-12-12T11:06:04.947Z,22.23
2023-12-12T11:08:32.868Z,20.50
2023-12-12T11:11:01.304Z,22.33
2023-12-12T11:13:31.489Z,17.08
2023-12-12T11:15:59.741Z,23.52
2023-12-12T11:18:29.032Z,17.10
2023-12-12T11:20:56.974Z,17.63
2023-12-12T11:23:55.279Z,22.52
2023-12-12T11:26:24.484Z,26.35
2023-12-12T11:28:52.413Z,21.50
2023-12-12T11:31:25.078Z,22.42
2023-12-12T11:34:11.406Z,17.95
2023-12-12T11:36:54.666Z,18.33
2023-12-12T11:39:27.823Z,17.80
2023-12-12T11:41:55.726Z,18.50
2023-12-12T11:44:23.864Z,16.05
2023-12-12T11:46:52.796Z,18.38
2023-12-12T11:49:22.800Z,24.60
2023-12-12T11:51:51.510Z,21.30
2023-12-12T11:54:23.453Z,20.63
2023-12-12T11:56:56.998Z,26.67
2023-12-12T11:59:25.072Z,18.50
2023-12-12T12:01:53.039Z,25.98
2023-12-12T12:04:22.558Z,27.83
2023-12-12T12:06:51.120Z,28.77
2023-12-12T12:09:18.992Z,22.98
2023-12-12T12:11:48.833Z,24.23
2023-12-12T12:14:18.457Z,24.95
2023-12-12T12:16:46.366Z,28.90
2023-12-12T12:19:31.978Z,22.73
2023-12-12T12:22:04.381Z,19.23
2023-12-12T12:24:32.316Z,30.20
2023-12-12T12:27:00.212Z,22.40
2023-12-12T12:29:28.102Z,19.83
2023-12-12T12:31:55.980Z,19.83
2023-12-12T12:34:25.062Z,16.45
2023-12-12T12:36:57.087Z,23.27
2023-12-12T12:39:26.530Z,16.10
2023-12-12T12:41:59.507Z,17.30
2023-12-12T12:44:33.986Z,20.40
2023-12-12T12:47:01.825Z,16.27
2023-12-12T12:49:29.700Z,12.95
2023-12-12T12:51:59.271Z,15.13
2023-12-12T12:54:27.255Z,11.50
2023-12-12T12:56:55.122Z,22.05
2023-12-12T12:59:23.003Z,15.30
2023-12-12T13:01:50.879Z,14.85
2023-12-12T13:04:19.986Z,17.17
2023-12-12T13:06:48.062Z,22.95
2023-12-12T13:09:19.163Z,13.35
2023-12-12T13:11:47.075Z,15.23
2023-12-12T13:14:15.227Z,13.18
2023-12-12T13:16:45.512Z,13.68
2023-12-12T13:19:14.601Z,8.35
2023-12-12T13:21:42.661Z,10.48
2023-12-12T13:24:10.700Z,4.47
2023-12-12T13:26:39.970Z,7.70
2023-12-12T13:29:08.346Z,9.15
2023-12-12T13:31:36.173Z,8.57
2023-12-12T13:34:07.171Z,8.52
2023-12-12T13:36:35.559Z,7.68
2023-12-12T13:39:04.768Z,7.32
2023-12-12T13:41:33.564Z,9.93
2023-12-12T13:44:02.826Z,11.23
2023-12-12T13:46:31.144Z,15.82
2023-12-12T13:48:59.238Z,10.80
2023-12-12T13:51:34.420Z,9.63
2023-12-12T13:54:09.722Z,5.95
2023-12-12T13:56:37.561Z,12.50
2023-12-12T13:59:07.754Z,5.93
2023-12-12T14:01:36.087Z,6.28
2023-12-12T14:04:04.313Z,6.05
2023-12-12T14:06:32.401Z,6.32
2023-12-12T14:09:00.289Z,12.43
2023-12-12T14:11:28.155Z,8.63
2023-12-12T14:13:57.339Z,7.28
2023-12-12T14:16:29.066Z,5.20
2023-12-12T14:18:58.635Z,6.35
2023-12-12T14:21:26.828Z,8.90
2023-12-12T14:23:54.965Z,3.60
2023-12-12T14:26:24.931Z,5.85
2023-12-12T14:28:53.040Z,6.97
2023-12-12T14:31:20.971Z,7.10
2023-12-12T14:33:50.653Z,5.82
2023-12-12T14:36:19.013Z,6.55
2023-12-12T14:38:46.891Z,6.05
2023-12-12T14:41:14.697Z,5.88
2023-12-12T14:43:46.305Z,7.50
2023-12-12T14:46:14.283Z,7.95
2023-12-12T14:48:42.259Z,7.93
2023-12-12T14:51:12.892Z,6.35
2023-12-12T14:53:42.072Z,4.22
2023-12-12T14:56:11.977Z,9.55
2023-12-12T14:58:39.837Z,8.10
2023-12-12T15:01:08.648Z,8.75
2023-12-12T15:03:36.669Z,10.15
2023-12-12T15:06:05.322Z,7.60
2023-12-12T15:08:34.612Z,7.47
2023-12-12T15:11:02.468Z,8.13
2023-12-12T15:13:30.265Z,5.68
2023-12-12T15:15:58.191Z,8.95
2023-12-12T15:18:26.102Z,5.88
2023-12-12T15:20:53.993Z,5.95
2023-12-12T15:23:22.439Z,10.00
2023-12-12T15:25:51.672Z,5.97
2023-12-12T15:28:25.480Z,6.65
2023-12-12T15:30:56.003Z,5.38
2023-12-12T15:33:24.318Z,4.85
2023-12-12T15:35:52.300Z,7.70
2023-12-12T15:38:20.167Z,15.63
2023-12-12T15:40:48.133Z,10.05
2023-12-12T15:43:17.519Z,14.07
2023-12-12T15:45:45.420Z,14.02
2023-12-12T15:48:13.476Z,11.65
2023-12-12T15:50:41.522Z,10.90
2023-12-12T15:53:09.436Z,7.55
2023-12-12T15:55:37.342Z,8.98
2023-12-12T15:58:05.206Z,9.77
2023-12-12T16:00:34.534Z,10.50
2023-12-12T16:03:02.496Z,26.08
2023-12-12T16:05:32.527Z,25.08
2023-12-12T16:08:02.261Z,15.82
2023-12-12T16:10:30.203Z,19.98
2023-12-12T16:12:58.104Z,21.13
2023-12-12T16:15:25.954Z,20.42
2023-12-12T16:17:55.212Z,17.08
2023-12-12T16:20:23.251Z,18.58
2023-12-12T16:22:51.368Z,18.02
2023-12-12T16:25:19.343Z,22.15
2023-12-12T16:27:51.900Z,16.27
2023-12-12T16:30:21.392Z,14.88
2023-12-12T16:32:54.169Z,17.98
2023-12-12T16:35:24.837Z,17.10
2023-12-12T16:37:52.836Z,16.75
2023-12-12T16:40:21.006Z,17.92
2023-12-12T16:42:48.874Z,21.10
2023-12-12T16:45:17.063Z,22.48
2023-12-12T16:47:45.489Z,17.88
2023-12-12T16:50:14.145Z,14.88
2023-12-12T16:52:43.575Z,16.55
2023-12-12T16:55:11.634Z,23.02
2023-12-12T16:57:39.450Z,22.50
2023-12-12T17:00:11.953Z,21.10
2023-12-12T17:02:39.983Z,18.00
2023-12-12T17:05:08.471Z,26.73
2023-12-12T17:07:36.683Z,23.98
2023-12-12T17:10:09.158Z,30.30
2023-12-12T17:12:37.438Z,24.55
2023-12-12T17:15:07.175Z,19.00
2023-12-12T17:17:35.789Z,17.92
2023-12-12T17:20:04.428Z,23.35
2023-12-12T17:22:32.435Z,25.05
2023-12-12T17:25:00.326Z,22.52
2023-12-12T17:27:29.658Z,25.95
2023-12-12T17:29:57.648Z,28.95
2023-12-12T17:32:25.432Z,19.08
2023-12-12T17:34:54.168Z,21.63
2023-12-12T17:37:22.224Z,33.88
2023-12-12T17:39:50.031Z,27.00
2023-12-12T17:42:17.830Z,26.90
2023-12-12T17:44:46.971Z,27.58
2023-12-12T17:47:14.913Z,31.95
2023-12-12T17:49:43.500Z,24.10
2023-12-12T17:52:11.837Z,32.90
2023-12-12T17:54:39.760Z,28.05
2023-12-12T17:57:07.614Z,35.72
2023-12-12T17:59:36.048Z,39.85
2023-12-12T18:02:05.708Z,38.22
2023-12-12T18:04:33.741Z,25.48
2023-12-12T18:07:01.732Z,22.95
2023-12-12T18:09:30.584Z,42.00
2023-12-12T18:11:58.591Z,45.35
2023-12-12T18:14:26.758Z,62.70
2023-12-12T18:16:54.611Z,54.40
2023-12-12T18:19:24.492Z,42.92
2023-12-12T18:21:52.400Z,38.63
2023-12-12T18:24:21.097Z,42.63
2023-12-12T18:26:52.772Z,68.00
2023-12-12T18:29:21.749Z,61.25
2023-12-12T18:31:50.017Z,51.63
2023-12-12T18:34:18.192Z,54.00
2023-12-12T18:36:47.554Z,50.28
2023-12-12T18:39:16.103Z,70.65
2023-12-12T18:41:45.341Z,47.17
2023-12-12T18:44:13.738Z,45.75
2023-12-12T18:46:42.378Z,31.98
2023-12-12T18:49:14.007Z,36.13
2023-12-12T18:51:43.164Z,30.58
2023-12-12T18:54:12.402Z,29.95
2023-12-12T18:56:40.234Z,27.30
2023-12-12T18:59:08.064Z,28.00
2023-12-12T19:01:35.963Z,24.50
2023-12-12T19:04:04.256Z,32.60
2023-12-12T19:06:32.276Z,47.47
2023-12-12T19:09:00.082Z,42.58
2023-12-12T19:11:29.351Z,53.20
2023-12-12T19:13:57.217Z,53.15
2023-12-12T19:16:25.637Z,52.80
2023-12-12T19:18:54.266Z,54.70
2023-12-12T19:21:22.165Z,44.17
2023-12-12T19:23:49.997Z,47.13
2023-12-12T19:26:19.029Z,60.17
2023-12-12T19:28:48.325Z,61.50
2023-12-12T19:31:16.270Z,51.55
2023-12-12T19:33:44.654Z,80.13
2023-12-12T19:36:12.813Z,45.20
2023-12-12T19:38:40.726Z,49.58
2023-12-12T19:41:09.523Z,53.97
2023-12-12T19:43:37.480Z,47.80
2023-12-12T19:46:09.632Z,45.60
2023-12-12T19:48:38.235Z,64.88
2023-12-12T19:51:07.872Z,57.22
2023-12-12T19:53:35.793Z,55.35
2023-12-12T19:56:04.451Z,41.33
2023-12-12T19:58:32.351Z,30.80
2023-12-12T20:01:00.273Z,21.73
2023-12-12T20:03:29.725Z,18.73
2023-12-12T20:05:57.832Z,21.30
2023-12-12T20:08:25.758Z,16.50
2023-12-12T20:10:53.926Z,15.68
2023-12-12T20:13:21.905Z,20.65
2023-12-12T20:15:52.138Z,21.45
2023-12-12T20:18:20.988Z,17.38
2023-12-12T20:20:50.185Z,15.27
2023-12-12T20:23:18.589Z,12.63
2023-12-12T20:25:46.713Z,16.98
2023-12-12T20:28:14.605Z,10.32
2023-12-12T20:30:42.538Z,11.80
2023-12-12T20:33:10.541Z,11.93
2023-12-12T20:35:38.440Z,15.50
2023-12-12T20:38:07.624Z,13.30
2023-12-12T20:40:35.445Z,12.05
2023-12-12T20:43:03.936Z,13.27
2023-12-12T20:45:32.915Z,12.63
2023-12-12T20:48:00.820Z,16.98
2023-12-12T20:50:28.846Z,11.30
2023-12-12T20:52:56.649Z,9.52
2023-12-12T20:55:25.829Z,12.32
2023-12-12T20:57:57.544Z,11.23
2023-12-12T21:00:28.639Z,10.90
2023-12-12T21:02:56.773Z,11.18
2023-12-12T21:05:25.494Z,7.60
2023-12-12T21:07:53.591Z,9.48
2023-12-12T21:10:21.603Z,7.93
2023-12-12T21:12:51.018Z,10.60
2023-12-12T21:15:19.162Z,7.80
2023-12-12T21:17:50.862Z,10.63
2023-12-12T21:20:19.333Z,7.13
2023-12-12T21:22:47.889Z,6.60
2023-12-12T21:25:15.893Z,6.63
2023-12-12T21:27:44.212Z,6.10
2023-12-12T21:30:14.012Z,6.78
2023-12-12T21:32:42.586Z,6.57
2023-12-12T21:35:11.235Z,5.72
2023-12-12T21:37:39.373Z,7.03
2023-12-12T21:40:11.381Z,8.10
2023-12-12T21:42:39.406Z,5.55
2023-12-12T21:45:07.948Z,7.13
2023-12-12T21:47:37.379Z,6.53
2023-12-12T21:50:06.178Z,5.90
2023-12-12T21:52:34.252Z,6.95
2023-12-12T21:55:03.274Z,8.73
2023-12-12T21:57:31.388Z,7.22
2023-12-12T21:59:59.607Z,8.15
2023-12-12T22:02:27.496Z,9.85
2023-12-12T22:04:56.727Z,10.05
2023-12-12T22:07:24.666Z,8.35
2023-12-12T22:09:52.499Z,6.30
2023-12-12T22:12:20.372Z,5.47
2023-12-12T22:14:48.236Z,5.22
2023-12-12T22:17:17.362Z,4.68
2023-12-12T22:19:57.755Z,13.32
2023-12-12T22:22:32.758Z,4.35
2023-12-12T22:25:00.840Z,3.63
2023-12-12T22:27:30.426Z,4.28
2023-12-12T22:29:58.474Z,3.15
2023-12-12T22:32:26.517Z,4.82
2023-12-12T22:34:54.785Z,4.75
2023-12-12T22:37:23.022Z,3.55
2023-12-12T22:39:52.202Z,3.50
2023-12-12T22:42:21.233Z,3.65
2023-12-12T22:44:49.130Z,4.35
2023-12-12T22:47:16.948Z,3.42
2023-12-12T22:49:44.846Z,4.88
2023-12-12T22:52:12.744Z,5.10
2023-12-12T22:54:40.588Z,5.10
2023-12-12T22:57:09.960Z,5.60
2023-12-12T22:59:37.789Z,3.85
2023-12-12T23:02:06.034Z,4.13
2023-12-12T23:04:36.362Z,5.40
2023-12-12T23:07:06.368Z,5.25
2023-12-12T23:09:34.285Z,5.20
2023-12-12T23:12:02.611Z,4.60
2023-12-12T23:14:31.812Z,4.45
2023-12-12T23:16:59.629Z,4.70
2023-12-12T23:19:27.633Z,5.45
2023-12-12T23:21:55.576Z,5.82
2023-12-12T23:24:23.478Z,5.18
2023-12-12T23:26:51.277Z,6.90
2023-12-12T23:29:19.089Z,5.93
2023-12-12T23:31:48.529Z,5.90
2023-12-12T23:34:16.544Z,5.25
2023-12-12T23:36:44.633Z,10.65
2023-12-12T23:39:12.504Z,6.20
2023-12-12T23:41:46.067Z,6.13
2023-12-12T23:44:16.185Z,9.63
2023-12-12T23:46:44.183Z,6.85
2023-12-12T23:49:16.180Z,7.18
2023-12-12T23:51:44.229Z,5.55
2023-12-12T23:54:12.168Z,6.30
2023-12-12T23:56:40.167Z,4.85
2023-12-12T23:59:07.966Z,6.78
